Time;durP1;ratioP1;P1;durP2;ratioP2;P2;SDS_P1;SDS_P2;PMS_P1;PMS_P2;Temp;Humidity;BMP_temperature;BMP_pressure;BME280_temperature;BME280_humidity;BME280_pressure;Samples;Min_cycle;Max_cycle;Signal;HPM_P1;HPM_P2
2023/03/17 01:44:36;;;;;;;11.63;5.50;;;;;;;5.96;82.05;101130.00;6249481;22;20018;-84
2023/03/17 01:47:01;;;;;;;11.23;5.68;;;;;;;5.93;81.71;101129.38;6289649;22;20254;-83
2023/03/17 01:49:52;;;;;;;12.27;5.88;;;;;;;5.91;81.78;101126.03;6262275;22;19987;-84
2023/03/17 02:16:36;;;;;;;7.72;3.85;;;;;;;5.70;81.71;101118.78;6248606;22;20031;-83
2023/03/17 03:32:07;;;;;;;9.75;4.47;;;;;;;5.63;78.92;101138.59;6236744;22;20395;-82
2023/03/17 03:37:23;;;;;;;6.95;3.95;;;;;;;5.18;81.43;101134.13;6240598;22;20030;-83
2023/03/17 04:15:06;;;;;;;11.63;4.27;;;;;;;5.20;83.57;101140.94;6254785;22;20282;-81
2023/03/17 05:35:49;;;;;;;21.33;4.85;;;;;;;3.56;100.00;101120.25;6247327;22;20008;-82
2023/03/17 05:38:41;;;;;;;13.55;5.70;;;;;;;3.94;100.00;101120.28;6216038;22;20885;-82
2023/03/17 05:54:33;;;;;;;9.38;4.32;;;;;;;6.40;79.09;101144.94;6245976;22;19899;-82
2023/03/17 05:59:44;;;;;;;14.60;5.28;;;;;;;5.77;81.41;101142.81;6245381;22;20024;-83
2023/03/17 06:02:14;;;;;;;21.33;5.13;;;;;;;5.08;86.33;101151.53;6261347;22;20004;-83
2023/03/17 06:08:47;;;;;;;8.23;4.70;;;;;;;4.11;100.00;101153.19;6268816;22;20034;-81
2023/03/17 06:11:42;;;;;;;14.20;5.60;;;;;;;4.38;97.87;101156.53;6226163;22;20028;-80
2023/03/17 06:14:08;;;;;;;15.13;5.75;;;;;;;4.51;98.02;101154.75;6239629;22;20028;-79
2023/03/17 06:25:22;;;;;;;24.08;5.63;;;;;;;6.16;84.20;101157.41;6267071;22;20039;-81
2023/03/17 06:28:01;;;;;;;19.45;5.93;;;;;;;6.10;82.79;101157.84;6261190;23;20032;-82
2023/03/17 06:33:57;;;;;;;13.68;5.30;;;;;;;6.31;79.98;101160.63;6260402;22;20028;-82
2023/03/17 06:42:23;;;;;;;13.50;4.60;;;;;;;6.13;80.13;101162.91;6237715;22;20031;-81
2023/03/17 06:47:36;;;;;;;14.32;5.05;;;;;;;7.16;69.02;101170.44;6258028;22;20024;-81
2023/03/17 06:51:11;;;;;;;12.88;4.60;;;;;;;7.60;65.38;101174.72;6224850;22;20047;-80
2023/03/17 06:54:24;;;;;;;17.63;5.22;;;;;;;7.78;66.12;101170.56;6271709;22;20035;-80
2023/03/17 07:06:24;;;;;;;13.35;5.22;;;;;;;8.69;61.07;101176.75;6264733;23;20218;-80
2023/03/17 07:08:55;;;;;;;13.85;5.93;;;;;;;9.58;57.76;101177.63;6233508;23;20016;-84
2023/03/17 07:11:31;;;;;;;15.55;5.65;;;;;;;9.47;58.38;101183.03;6266164;22;20023;-80
2023/03/17 07:14:01;;;;;;;9.52;5.15;;;;;;;10.16;56.05;101186.34;6264317;23;20012;-80
2023/03/17 07:16:27;;;;;;;12.35;5.55;;;;;;;10.96;55.13;101191.06;6260358;22;20083;-81
2023/03/17 07:18:57;;;;;;;11.25;5.18;;;;;;;11.83;50.07;101194.78;6250987;23;20446;-80
2023/03/17 07:21:23;;;;;;;11.68;5.45;;;;;;;11.91;48.53;101193.00;6251805;23;20012;-80
2023/03/17 07:24:11;;;;;;;12.43;5.15;;;;;;;11.38;50.47;101197.47;6270016;22;20014;-81
2023/03/17 07:27:07;;;;;;;16.52;5.60;;;;;;;11.66;50.38;101201.75;6263464;23;20355;-83
2023/03/17 07:29:36;;;;;;;13.30;4.93;;;;;;;11.67;51.36;101195.44;6221610;22;20000;-82
2023/03/17 07:32:07;;;;;;;14.50;4.60;;;;;;;11.99;49.71;101202.03;6241222;22;20004;-79
2023/03/17 07:34:38;;;;;;;13.10;5.35;;;;;;;12.36;49.36;101199.97;6246806;22;20012;-79
2023/03/17 07:37:07;;;;;;;15.73;5.13;;;;;;;12.07;49.81;101202.91;6248096;22;20016;-81
2023/03/17 07:39:33;;;;;;;16.38;5.80;;;;;;;11.62;50.64;101207.50;6239015;23;20067;-80
2023/03/17 07:42:04;;;;;;;10.02;5.63;;;;;;;12.13;49.82;101207.59;6247327;23;20047;-78
2023/03/17 08:00:40;;;;;;;12.23;6.73;;;;;;;13.65;45.67;101197.78;6261596;22;20068;-76
2023/03/17 08:03:06;;;;;;;19.02;8.70;;;;;;;13.51;45.85;101198.44;6269309;22;20270;-81
2023/03/17 08:05:37;;;;;;;23.30;9.20;;;;;;;13.55;46.48;101199.78;6266243;22;20019;-80
2023/03/17 08:12:00;;;;;;;20.13;7.82;;;;;;;14.30;45.71;101200.41;6268433;22;20027;-79
2023/03/17 08:14:41;;;;;;;29.63;10.95;;;;;;;13.67;45.67;101202.94;6257131;23;20019;-79
2023/03/17 08:17:42;;;;;;;32.50;12.65;;;;;;;14.32;44.96;101203.72;6262395;22;20012;-78
2023/03/17 08:20:50;;;;;;;49.25;19.80;;;;;;;14.53;44.04;101206.72;6264223;22;20058;-79
2023/03/17 08:27:07;;;;;;;91.07;31.48;;;;;;;13.88;45.73;101212.13;6265789;23;20039;-79
2023/03/17 08:29:39;;;;;;;42.08;17.73;;;;;;;12.72;49.93;101211.31;6269754;22;20066;-80
2023/03/17 08:32:21;;;;;;;62.40;23.05;;;;;;;13.17;48.04;101211.00;6262512;23;20012;-80
2023/03/17 08:34:51;;;;;;;28.98;10.65;;;;;;;12.88;48.31;101214.03;6248095;23;20016;-84
2023/03/17 08:37:40;;;;;;;20.25;9.30;;;;;;;14.02;45.00;101213.25;6249102;22;20026;-77
2023/03/17 08:40:32;;;;;;;30.15;12.20;;;;;;;13.51;45.10;101209.09;6251565;22;20012;-80
2023/03/17 08:50:07;;;;;;;24.73;9.57;;;;;;;14.09;43.83;101214.25;6238545;22;20020;-78
2023/03/17 08:53:33;;;;;;;26.27;12.10;;;;;;;13.88;43.86;101213.94;6245308;22;20052;-78
2023/03/17 08:56:39;;;;;;;21.50;9.90;;;;;;;13.68;44.98;101216.09;6242368;22;20019;-78
2023/03/17 09:02:43;;;;;;;18.33;9.37;;;;;;;14.54;42.91;101208.38;6272689;22;20000;-76
2023/03/17 09:05:42;;;;;;;15.90;6.90;;;;;;;14.86;41.76;101207.44;6266189;23;20069;-77
2023/03/17 09:19:12;;;;;;;31.35;12.73;;;;;;;15.49;40.68;101194.78;6209850;23;20049;-82
2023/03/17 09:30:43;;;;;;;18.65;8.63;;;;;;;15.42;39.26;101208.97;6207656;23;20021;-83
2023/03/17 10:58:17;;;;;;;6.78;3.80;;;;;;;19.03;27.24;101171.16;6236841;22;20510;-87
2023/03/17 11:01:01;;;;;;;4.45;2.75;;;;;;;19.03;26.10;101173.84;6240164;23;19997;-85
2023/03/17 11:03:32;;;;;;;6.18;3.40;;;;;;;19.40;26.57;101171.69;6233508;23;20012;-84
2023/03/17 11:06:03;;;;;;;11.32;3.60;;;;;;;20.27;25.85;101169.69;6239808;23;20047;-84
2023/03/17 11:08:40;;;;;;;3.80;2.70;;;;;;;19.55;25.06;101169.69;6213888;23;20005;-87
2023/03/17 11:11:21;;;;;;;7.53;3.40;;;;;;;20.23;24.65;101167.59;6234007;23;20013;-86
2023/03/17 11:14:00;;;;;;;6.15;3.03;;;;;;;17.58;26.86;101159.66;6235300;23;20019;-85
2023/03/17 11:16:26;;;;;;;6.32;3.20;;;;;;;18.68;26.61;101158.84;6209992;23;20035;-86
2023/03/17 11:18:56;;;;;;;6.45;2.85;;;;;;;19.11;26.05;101151.34;6157920;23;20020;-88
2023/03/17 11:21:46;;;;;;;4.45;2.78;;;;;;;17.95;26.91;101152.16;6207645;23;20008;-86
2023/03/17 11:24:26;;;;;;;9.90;2.90;;;;;;;18.38;26.70;101128.69;6174817;23;20064;-88
2023/03/17 11:27:02;;;;;;;6.53;3.08;;;;;;;17.42;27.56;101141.97;6210046;23;19997;-87
2023/03/17 11:29:34;;;;;;;5.05;3.15;;;;;;;17.51;27.68;101124.72;6209231;23;20484;-86
2023/03/17 11:32:39;;;;;;;4.10;2.72;;;;;;;18.17;27.73;101127.94;6243357;23;20001;-87
2023/03/17 11:35:26;;;;;;;5.18;3.05;;;;;;;18.01;27.20;101124.53;6243723;23;19996;-87
2023/03/17 11:38:30;;;;;;;4.95;2.55;;;;;;;18.16;27.48;101121.78;6242867;23;19993;-89
2023/03/17 11:40:56;;;;;;;7.15;3.15;;;;;;;17.50;28.27;101123.06;6145990;23;20028;-89
2023/03/17 11:43:46;;;;;;;5.95;2.90;;;;;;;17.51;28.00;101108.63;6116400;23;20018;-84
2023/03/17 11:46:17;;;;;;;6.70;3.00;;;;;;;18.51;26.83;101119.91;6139179;23;20017;-88
2023/03/17 11:48:55;;;;;;;3.95;2.78;;;;;;;18.08;26.68;101109.31;6139870;23;20078;-88
2023/03/17 11:51:58;;;;;;;5.63;2.80;;;;;;;18.26;26.93;101090.00;6176768;23;20023;-86
2023/03/17 11:54:42;;;;;;;10.73;2.60;;;;;;;19.36;25.13;101116.66;6227839;23;20009;-86
2023/03/17 11:57:17;;;;;;;6.07;2.50;;;;;;;19.81;24.45;101104.31;6197815;23;20017;-88
2023/03/17 12:00:05;;;;;;;8.32;3.30;;;;;;;20.45;24.84;101101.75;6199706;23;20009;-87
2023/03/17 12:02:52;;;;;;;5.03;2.88;;;;;;;19.78;24.95;101094.81;6201659;23;20040;-85
2023/03/17 12:05:26;;;;;;;9.90;3.15;;;;;;;20.45;24.88;101088.28;6176869;23;20013;-87
2023/03/17 12:08:02;;;;;;;6.60;2.47;;;;;;;19.77;24.05;101106.59;6203007;23;20009;-88
2023/03/17 12:10:50;;;;;;;4.47;2.13;;;;;;;17.85;25.89;101078.41;6205367;23;20009;-85
2023/03/17 12:13:22;;;;;;;6.00;2.50;;;;;;;16.45;27.73;101079.03;6212912;23;20069;-88
2023/03/17 12:16:21;;;;;;;5.75;2.17;;;;;;;15.55;29.20;101059.63;6211139;23;20013;-86
2023/03/17 12:19:02;;;;;;;5.82;2.60;;;;;;;14.95;30.54;101079.09;6213234;23;20068;-87
2023/03/17 12:22:19;;;;;;;4.60;3.08;;;;;;;14.45;30.82;101068.88;6213726;23;20008;-88
2023/03/17 12:25:03;;;;;;;7.80;3.33;;;;;;;14.45;31.57;101058.22;6166456;23;20005;-88
2023/03/17 12:28:01;;;;;;;15.18;3.35;;;;;;;14.69;31.33;101043.06;6210175;23;20021;-89
2023/03/17 12:30:53;;;;;;;13.18;3.85;;;;;;;14.55;31.29;101044.66;6190477;23;20036;-87
2023/03/17 12:33:31;;;;;;;5.10;2.90;;;;;;;14.34;31.47;101036.44;6213383;23;20001;-86
2023/03/17 12:35:59;;;;;;;7.60;3.00;;;;;;;14.27;31.65;101040.78;6212059;23;20013;-87
2023/03/17 12:38:29;;;;;;;6.45;3.05;;;;;;;14.22;31.08;101027.94;6209783;23;20029;-87
2023/03/17 12:41:15;;;;;;;3.90;3.00;;;;;;;14.27;32.11;101035.44;6188745;23;20001;-85
2023/03/17 12:44:12;;;;;;;5.93;2.67;;;;;;;14.42;31.66;101023.88;6213155;23;20017;-87
2023/03/17 12:47:16;;;;;;;4.25;2.83;;;;;;;14.29;31.76;101012.09;6212856;23;20021;-86
2023/03/17 12:50:06;;;;;;;6.03;3.38;;;;;;;14.58;31.39;101017.66;6212760;23;20064;-87
2023/03/17 12:52:41;;;;;;;6.18;2.75;;;;;;;14.45;31.59;101012.03;6214001;23;20001;-87
2023/03/17 12:55:13;;;;;;;4.57;3.08;;;;;;;14.10;32.55;101012.50;6211653;23;19997;-86
2023/03/17 12:57:42;;;;;;;7.60;3.55;;;;;;;14.14;32.66;101008.50;6221523;23;20040;-87
2023/03/17 13:00:28;;;;;;;6.13;2.90;;;;;;;14.27;32.72;100998.09;6227945;23;20039;-87
2023/03/17 13:03:15;;;;;;;9.50;3.08;;;;;;;14.51;32.00;101011.34;6202288;23;20023;-87
2023/03/17 13:05:46;;;;;;;4.97;3.30;;;;;;;14.31;32.18;100999.44;6200970;23;20063;-86
2023/03/17 13:08:20;;;;;;;8.63;3.15;;;;;;;14.40;31.88;100987.75;6225170;23;20015;-84
2023/03/17 13:10:50;;;;;;;5.45;3.60;;;;;;;14.43;32.78;100980.22;6199553;23;20040;-87
2023/03/17 13:13:39;;;;;;;6.47;3.70;;;;;;;14.64;33.09;100979.59;6228196;23;20016;-87
2023/03/17 13:16:05;;;;;;;9.43;4.03;;;;;;;14.58;33.41;100977.63;6229563;23;20008;-88
2023/03/17 13:18:33;;;;;;;5.50;3.55;;;;;;;14.76;31.67;100978.16;6230196;23;20079;-87
2023/03/17 13:20:59;;;;;;;6.63;4.03;;;;;;;14.52;32.30;100985.50;6230477;23;20023;-87
2023/03/17 13:23:55;;;;;;;7.07;3.67;;;;;;;14.41;32.42;100970.75;6230625;23;20012;-85
2023/03/17 13:26:52;;;;;;;9.75;3.70;;;;;;;14.34;33.08;100977.78;6205516;23;20012;-88
2023/03/17 13:29:33;;;;;;;5.60;3.67;;;;;;;14.48;32.45;100974.38;6231211;23;20070;-88
2023/03/17 13:32:14;;;;;;;7.28;3.60;;;;;;;14.44;32.79;100967.72;6204841;23;20047;-88
2023/03/17 13:35:08;;;;;;;4.45;3.40;;;;;;;14.56;32.20;100971.63;6231809;23;20013;-86
2023/03/17 13:38:11;;;;;;;13.23;3.60;;;;;;;14.47;32.10;100956.69;6207708;23;20009;-87
2023/03/17 13:41:09;;;;;;;7.85;4.40;;;;;;;14.22;33.23;100957.81;6188686;23;20068;-86
2023/03/17 13:43:47;;;;;;;7.55;4.13;;;;;;;14.45;32.77;100951.53;6194188;23;20147;-87
2023/03/17 13:46:26;;;;;;;7.28;4.15;;;;;;;14.80;32.31;100941.28;6232823;23;20012;-87
2023/03/17 13:48:54;;;;;;;7.75;4.30;;;;;;;14.69;32.37;100942.53;6232068;23;20019;-86
2023/03/17 13:51:23;;;;;;;5.57;3.97;;;;;;;14.44;32.48;100946.38;6206235;23;20016;-87
2023/03/17 13:53:52;;;;;;;9.10;3.78;;;;;;;14.59;32.05;100944.59;6182734;23;20068;-86
2023/03/17 13:56:18;;;;;;;7.15;4.35;;;;;;;14.38;32.90;100936.44;6236849;23;20040;-86
2023/03/17 13:58:54;;;;;;;7.43;4.63;;;;;;;14.30;33.26;100936.44;6187762;23;19996;-86
2023/03/17 14:01:21;;;;;;;7.97;4.38;;;;;;;14.49;33.47;100922.66;6216354;23;20019;-87
2023/03/17 14:03:54;;;;;;;8.98;4.65;;;;;;;14.38;34.13;100926.56;6242734;23;20040;-85
2023/03/17 14:06:26;;;;;;;9.70;5.28;;;;;;;14.44;34.24;100927.72;6216463;23;20031;-86
2023/03/17 14:08:54;;;;;;;;;;;;;;;14.73;34.67;100919.81;6241775;23;20020;-86
2023/03/17 14:11:31;;;;;;;9.98;4.82;;;;;;;14.69;33.22;100923.84;6241201;23;19939;-83
2023/03/17 14:14:35;;;;;;;10.05;4.57;;;;;;;14.47;33.97;100932.69;6192172;23;20016;-85
2023/03/17 14:17:12;;;;;;;13.52;6.20;;;;;;;14.25;34.88;100930.81;6215387;23;20009;-86
2023/03/17 14:19:40;;;;;;;7.10;5.15;;;;;;;14.21;35.09;100929.50;6242691;23;20016;-86
2023/03/17 14:22:21;;;;;;;10.10;6.38;;;;;;;14.53;34.40;100923.97;6191693;23;20005;-86
2023/03/17 14:24:54;;;;;;;14.25;5.10;;;;;;;14.48;34.52;100924.50;6243011;23;20211;-86
2023/03/17 14:27:23;;;;;;;10.38;5.30;;;;;;;14.45;34.12;100926.69;6242774;23;20024;-88
2023/03/17 14:29:49;;;;;;;8.32;5.57;;;;;;;14.47;33.98;100908.69;6243092;23;20015;-83
2023/03/17 14:32:18;;;;;;;8.18;4.75;;;;;;;14.45;34.17;100913.34;6242897;23;20047;-87
2023/03/17 14:35:01;;;;;;;8.57;5.28;;;;;;;14.23;34.89;100917.66;6216172;23;20024;-87
2023/03/17 14:37:27;;;;;;;7.93;5.43;;;;;;;14.30;34.63;100907.94;6214039;23;20020;-87
2023/03/17 14:39:56;;;;;;;8.65;5.07;;;;;;;14.37;34.08;100908.09;6211720;23;20017;-85
2023/03/17 14:42:30;;;;;;;9.18;4.88;;;;;;;14.37;34.31;100908.09;6240172;23;20020;-86
2023/03/17 14:45:06;;;;;;;8.65;5.80;;;;;;;14.32;34.60;100907.75;6240506;23;20008;-88
2023/03/17 14:47:38;;;;;;;8.07;5.15;;;;;;;14.32;34.66;100910.41;6216221;23;20020;-87
2023/03/17 14:50:12;;;;;;;;;;;;;;;14.47;34.34;100893.53;6193044;23;19997;-87
2023/03/17 14:52:40;;;;;;;8.70;5.68;;;;;;;14.29;34.22;100894.78;6243460;23;19903;-87
2023/03/17 14:55:07;;;;;;;12.50;5.07;;;;;;;14.55;33.76;100894.47;6243407;23;20004;-87
2023/03/17 14:57:33;;;;;;;8.30;5.30;;;;;;;14.45;33.49;100887.53;6212738;23;20087;-87
2023/03/17 15:00:14;;;;;;;7.88;5.00;;;;;;;14.56;32.97;100880.09;6212522;23;19993;-88
2023/03/17 15:02:41;;;;;;;6.57;4.47;;;;;;;14.55;32.44;100889.94;6211039;23;20032;-87
2023/03/17 15:05:15;;;;;;;8.38;5.10;;;;;;;14.39;33.21;100890.06;6207373;23;20013;-89
2023/03/17 15:07:42;;;;;;;8.48;5.07;;;;;;;14.49;33.99;100880.81;6207232;23;20055;-85
2023/03/17 15:10:14;;;;;;;9.02;5.93;;;;;;;14.23;35.01;100887.47;6210498;23;20002;-87
2023/03/17 15:12:41;;;;;;;8.45;5.28;;;;;;;14.32;35.48;100867.75;6209211;23;20020;-86
2023/03/17 15:15:18;;;;;;;15.05;6.15;;;;;;;14.25;36.18;100872.16;6208533;23;20013;-85
2023/03/17 15:17:49;;;;;;;12.18;5.75;;;;;;;14.16;36.33;100874.03;6200449;23;20428;-87
2023/03/17 15:20:17;;;;;;;9.85;5.20;;;;;;;14.34;35.60;100877.28;6201341;23;20055;-85
2023/03/17 15:22:47;;;;;;;8.38;5.50;;;;;;;14.54;35.20;100874.97;6202104;23;20016;-86
2023/03/17 15:25:22;;;;;;;8.73;5.65;;;;;;;14.47;35.42;100866.03;6205099;23;20009;-87
2023/03/17 15:27:47;;;;;;;9.93;5.55;;;;;;;14.51;35.90;100862.00;6204651;23;20013;-85
2023/03/17 15:30:20;;;;;;;9.20;5.20;;;;;;;14.30;36.75;100856.44;6204101;23;20028;-85
2023/03/17 15:32:50;;;;;;;;;;;;;;;14.33;37.37;100848.09;6202704;23;20009;-85
2023/03/17 15:35:16;;;;;;;13.10;5.43;;;;;;;14.41;36.51;100854.25;6202790;23;19912;-86
2023/03/17 15:37:42;;;;;;;9.48;4.95;;;;;;;14.20;36.91;100855.84;6199033;23;20043;-85
2023/03/17 15:40:08;;;;;;;8.05;5.28;;;;;;;14.35;36.43;100851.47;6198341;23;20093;-86
2023/03/17 15:42:36;;;;;;;7.95;5.45;;;;;;;14.30;37.08;100837.78;6168407;23;20013;-87
2023/03/17 15:45:02;;;;;;;9.43;5.65;;;;;;;14.24;36.99;100842.00;6191779;23;20133;-87
2023/03/17 15:47:31;;;;;;;9.45;5.78;;;;;;;14.35;36.50;100851.47;6192004;23;20009;-85
2023/03/17 15:50:01;;;;;;;9.45;4.88;;;;;;;14.13;36.03;100846.91;6193222;23;20009;-86
2023/03/17 15:52:27;;;;;;;13.38;5.28;;;;;;;14.21;36.53;100833.53;6168675;23;20104;-86
2023/03/17 15:54:57;;;;;;;9.77;5.82;;;;;;;14.44;37.20;100839.72;6195039;23;20012;-86
2023/03/17 15:57:23;;;;;;;11.00;5.35;;;;;;;14.31;37.39;100839.44;6209228;23;20024;-85
2023/03/17 15:59:49;;;;;;;9.10;4.88;;;;;;;14.31;37.04;100828.78;6226859;23;20087;-85
2023/03/17 16:02:32;;;;;;;7.30;4.55;;;;;;;14.28;37.16;100829.16;6230681;23;20016;-85
2023/03/17 16:05:09;;;;;;;11.70;4.93;;;;;;;14.12;37.82;100839.94;6228145;23;20017;-85
2023/03/17 16:07:35;;;;;;;8.80;5.10;;;;;;;14.21;38.17;100838.88;6227806;23;20012;-84
2023/03/17 16:10:00;;;;;;;8.27;4.93;;;;;;;14.08;38.80;100833.28;6230006;23;20455;-85
2023/03/17 16:12:26;;;;;;;7.70;4.85;;;;;;;14.10;39.10;100840.09;6234153;23;20016;-87
2023/03/17 16:14:52;;;;;;;7.78;4.50;;;;;;;13.89;38.80;100840.72;6231869;23;20009;-85
2023/03/17 16:17:27;;;;;;;7.78;5.40;;;;;;;14.02;39.00;100837.47;6177023;23;20031;-84
2023/03/17 16:19:54;;;;;;;8.38;5.00;;;;;;;14.20;38.51;100834.53;6226901;23;20083;-87
2023/03/17 16:22:40;;;;;;;11.25;5.13;;;;;;;14.14;38.28;100827.25;6149361;23;20021;-86
2023/03/17 16:25:27;;;;;;;8.15;5.38;;;;;;;14.33;38.04;100824.97;6222921;23;20335;-85
2023/03/17 16:27:58;;;;;;;8.85;5.28;;;;;;;14.17;38.84;100818.88;6195788;23;20013;-86
2023/03/17 16:30:32;;;;;;;8.50;4.90;;;;;;;13.97;38.66;100826.53;6193746;23;20102;-86
2023/03/17 16:33:15;;;;;;;10.68;4.90;;;;;;;13.76;39.63;100826.31;6193517;23;20075;-85
2023/03/17 16:35:40;;;;;;;7.63;4.60;;;;;;;13.98;39.79;100829.03;6194422;23;20337;-85
2023/03/17 16:38:11;;;;;;;8.55;5.00;;;;;;;14.16;39.66;100825.22;6169964;23;20062;-86
2023/03/17 16:40:37;;;;;;;9.63;5.80;;;;;;;14.07;39.89;100827.13;6221616;23;20012;-86
2023/03/17 16:43:17;;;;;;;14.10;5.68;;;;;;;14.02;40.74;100826.81;6194145;23;20074;-87
2023/03/17 16:45:42;;;;;;;7.10;4.72;;;;;;;14.02;40.18;100828.69;6220484;23;20083;-87
2023/03/17 16:48:11;;;;;;;9.65;5.57;;;;;;;14.01;40.95;100811.84;6194085;23;20455;-86
2023/03/17 16:50:37;;;;;;;11.32;6.00;;;;;;;14.09;40.93;100825.09;6192781;23;20005;-88
2023/03/17 16:53:03;;;;;;;12.68;5.18;;;;;;;13.84;41.89;100821.78;6193357;23;20098;-88
2023/03/17 16:55:29;;;;;;;8.65;5.38;;;;;;;13.98;41.02;100823.69;6219510;23;20009;-86
2023/03/17 16:58:01;;;;;;;10.68;6.82;;;;;;;13.81;41.47;100826.63;6219498;23;20009;-84
2023/03/17 17:00:29;;;;;;;11.38;5.95;;;;;;;13.96;41.33;100827.53;6221437;23;20099;-87
2023/03/17 17:02:55;;;;;;;9.00;4.78;;;;;;;14.01;41.40;100835.00;6172098;23;20016;-86
2023/03/17 17:05:29;;;;;;;9.70;4.95;;;;;;;13.89;41.79;100822.06;6221390;23;20032;-85
2023/03/17 17:07:58;;;;;;;12.70;5.75;;;;;;;13.62;42.80;100814.56;6195950;23;20009;-87
2023/03/17 17:10:26;;;;;;;11.13;5.55;;;;;;;13.81;42.74;100823.97;6147604;23;20016;-87
2023/03/17 17:12:53;;;;;;;9.55;5.55;;;;;;;13.53;43.42;100815.63;6220825;23;20017;-86
2023/03/17 17:15:20;;;;;;;9.50;5.43;;;;;;;13.72;42.74;100815.16;6222171;23;20019;-87
2023/03/17 17:17:49;;;;;;;12.25;5.78;;;;;;;13.94;42.45;100822.38;6172975;23;20047;-86
2023/03/17 17:20:23;;;;;;;9.20;5.20;;;;;;;13.78;42.63;100822.50;6227421;23;20009;-87
2023/03/17 17:22:49;;;;;;;8.68;5.03;;;;;;;13.67;42.99;100817.53;6230356;23;20009;-88
2023/03/17 17:25:15;;;;;;;10.85;5.32;;;;;;;13.79;42.75;100820.63;6222331;23;20015;-85
2023/03/17 17:27:43;;;;;;;15.45;6.50;;;;;;;13.51;43.73;100819.47;6171087;23;20008;-86
2023/03/17 17:30:12;;;;;;;10.93;6.15;;;;;;;13.58;43.84;100815.09;6221660;23;20051;-84
2023/03/17 17:32:38;;;;;;;10.05;5.60;;;;;;;13.39;44.55;100813.66;6195737;23;20013;-85
2023/03/17 17:35:04;;;;;;;14.52;6.63;;;;;;;13.62;44.02;100817.22;6222660;23;20012;-85
2023/03/17 17:37:30;;;;;;;17.13;6.47;;;;;;;13.55;44.23;100821.63;6171019;23;20008;-86
2023/03/17 17:39:55;;;;;;;13.70;5.68;;;;;;;13.44;44.60;100822.00;6223544;23;20007;-86
2023/03/17 17:42:21;;;;;;;10.77;5.90;;;;;;;13.56;44.59;100823.25;6222377;23;20043;-85
2023/03/17 17:45:28;;;;;;;18.48;7.35;;;;;;;13.40;45.22;100824.16;6201996;23;20008;-87
2023/03/17 17:48:01;;;;;;;13.98;7.30;;;;;;;12.95;46.59;100818.63;6208946;23;20017;-88
2023/03/17 17:50:28;;;;;;;26.88;10.52;;;;;;;12.90;47.57;100821.78;6220152;23;20020;-89
2023/03/17 17:53:00;;;;;;;14.40;6.43;;;;;;;12.92;47.09;100824.31;6172468;23;20047;-87
2023/03/17 17:55:26;;;;;;;16.17;7.60;;;;;;;12.66;48.43;100819.16;6198708;23;20016;-89
2023/03/17 17:57:52;;;;;;;13.35;7.05;;;;;;;12.67;49.06;100823.50;6192126;23;20440;-87
2023/03/17 18:00:18;;;;;;;17.55;8.30;;;;;;;12.51;49.74;100823.53;6167574;23;20012;-87
2023/03/17 18:02:44;;;;;;;16.45;7.82;;;;;;;12.43;50.35;100815.53;6194776;23;20013;-90
2023/03/17 18:05:10;;;;;;;21.67;7.97;;;;;;;12.15;51.35;100820.38;6201494;23;20024;-90
2023/03/17 18:07:43;;;;;;;17.00;8.10;;;;;;;12.00;51.70;100821.19;6201372;23;20020;-93
2023/03/17 18:10:24;;;;;;;17.90;9.05;;;;;;;11.96;52.31;100814.53;6169231;23;20017;-90
2023/03/17 18:12:50;;;;;;;25.73;10.80;;;;;;;11.95;52.11;100824.31;6195154;23;20013;-86
2023/03/17 18:15:16;;;;;;;31.65;13.10;;;;;;;11.87;51.98;100818.97;6188604;23;20329;-86
2023/03/17 18:17:42;;;;;;;31.65;14.82;;;;;;;11.87;52.65;100822.47;6192118;23;20013;-85
2023/03/17 18:20:56;;;;;;;32.22;13.57;;;;;;;11.88;52.59;100821.47;6186399;23;20009;-86
2023/03/17 18:23:21;;;;;;;26.75;12.88;;;;;;;12.00;52.89;100815.88;6188668;23;20395;-85
2023/03/17 18:25:48;;;;;;;33.47;15.48;;;;;;;11.91;53.15;100822.97;6189878;23;20067;-87
2023/03/17 18:28:13;;;;;;;27.00;12.85;;;;;;;11.84;53.79;100821.97;6187115;23;20005;-86
2023/03/17 18:30:39;;;;;;;28.23;12.10;;;;;;;11.74;54.87;100824.75;6185284;23;20019;-86
2023/03/17 18:33:09;;;;;;;23.00;10.77;;;;;;;11.85;55.03;100823.63;6186970;23;20088;-86
2023/03/17 18:35:35;;;;;;;29.83;9.75;;;;;;;11.89;54.85;100817.84;6191606;23;20005;-87
2023/03/17 18:38:01;;;;;;;30.52;10.20;;;;;;;11.77;55.67;100821.78;6190767;23;20440;-86
2023/03/17 18:40:29;;;;;;;31.38;12.40;;;;;;;11.73;55.99;100825.75;6184808;23;20009;-86
2023/03/17 18:42:58;;;;;;;12.47;7.07;;;;;;;11.82;55.62;100819.50;6183212;23;20023;-86
2023/03/17 18:45:24;;;;;;;29.23;10.15;;;;;;;11.54;56.67;100828.66;6186924;23;20029;-86
2023/03/17 18:47:49;;;;;;;33.53;10.57;;;;;;;11.42;57.41;100827.28;6186621;23;20013;-87
2023/03/17 18:50:16;;;;;;;26.83;10.77;;;;;;;11.56;57.10;100834.66;6184487;23;20429;-86
2023/03/17 18:52:43;;;;;;;27.15;11.63;;;;;;;11.68;56.74;100822.72;6186952;23;20009;-86
2023/03/17 18:55:10;;;;;;;27.13;12.52;;;;;;;11.65;56.38;100823.06;6188552;23;20448;-85
2023/03/17 18:57:36;;;;;;;34.17;13.70;;;;;;;11.40;57.75;100823.97;6185114;23;20009;-87
2023/03/17 19:00:03;;;;;;;47.70;20.08;;;;;;;11.30;58.84;100823.28;6187830;23;20084;-86
2023/03/17 19:02:33;;;;;;;33.10;16.50;;;;;;;11.33;59.05;100823.75;6164117;23;20064;-88
2023/03/17 19:05:01;;;;;;;41.00;19.17;;;;;;;11.28;59.78;100827.88;6165399;23;20066;-86
2023/03/17 19:07:28;;;;;;;30.55;14.43;;;;;;;11.26;60.17;100827.22;6201697;23;20009;-85
2023/03/17 19:09:54;;;;;;;30.98;13.25;;;;;;;11.19;61.02;100827.03;6203587;23;20001;-85
2023/03/17 19:12:22;;;;;;;28.48;13.15;;;;;;;11.18;61.25;100827.19;6210030;23;20021;-86
2023/03/17 19:25:35;;;;;;;32.27;18.53;;;;;;;11.19;60.08;100829.69;6183827;22;20252;-86
2023/03/17 19:28:05;;;;;;;34.58;14.85;;;;;;;10.89;60.48;100828.34;6204012;23;20698;-90
2023/03/17 19:30:43;;;;;;;29.80;14.45;;;;;;;11.13;59.41;100826.84;6178771;23;20017;-87
2023/03/17 19:33:10;;;;;;;31.83;13.50;;;;;;;11.31;58.24;100827.56;6201183;23;20005;-88
2023/03/17 19:35:36;;;;;;;32.75;14.15;;;;;;;11.23;56.93;100831.03;6171285;23;20013;-87
2023/03/17 19:38:03;;;;;;;44.25;16.92;;;;;;;11.16;57.17;100826.50;6219472;23;20019;-88
2023/03/17 19:40:29;;;;;;;32.17;13.60;;;;;;;11.08;56.62;100829.09;6224297;23;20001;-85
2023/03/17 19:42:55;;;;;;;31.75;13.00;;;;;;;10.99;56.81;100822.09;6231583;23;20023;-89
2023/03/17 19:45:28;;;;;;;33.15;12.38;;;;;;;11.06;56.10;100828.44;6203180;23;20340;-88
2023/03/17 19:47:54;;;;;;;23.13;12.43;;;;;;;11.01;55.11;100828.06;6197076;23;20336;-88
2023/03/17 19:50:20;;;;;;;24.52;11.73;;;;;;;11.15;55.09;100832.78;6225169;23;20028;-88
2023/03/17 19:52:51;;;;;;;27.60;12.60;;;;;;;11.02;54.77;100824.44;6222766;23;20432;-88
2023/03/17 19:55:20;;;;;;;29.40;12.63;;;;;;;10.73;55.84;100830.91;6223534;23;20063;-90
2023/03/17 19:57:46;;;;;;;23.70;11.90;;;;;;;10.27;57.27;100823.25;6173390;23;20008;-86
2023/03/17 20:00:13;;;;;;;20.83;11.60;;;;;;;10.14;57.82;100825.47;6200151;23;20012;-87
2023/03/17 20:02:41;;;;;;;19.90;10.73;;;;;;;10.11;57.49;100831.03;6203985;23;20008;-88
2023/03/17 20:05:09;;;;;;;27.08;11.73;;;;;;;10.46;56.62;100836.34;6214226;22;20063;-89
2023/03/17 20:07:35;;;;;;;18.67;10.55;;;;;;;10.20;57.04;100830.16;6229194;23;20005;-86
2023/03/17 20:10:03;;;;;;;32.90;11.82;;;;;;;10.24;57.39;100827.03;6228127;23;20008;-88
2023/03/17 20:18:34;;;;;;;22.10;11.52;;;;;;;10.22;57.39;100820.22;6069300;23;20059;-87
2023/03/17 20:21:04;;;;;;;21.67;11.02;;;;;;;10.26;57.80;100824.25;6070540;23;20019;-87
2023/03/17 20:23:32;;;;;;;18.08;10.45;;;;;;;10.38;57.32;100826.50;6047135;23;20007;-86
2023/03/17 20:26:00;;;;;;;21.17;10.90;;;;;;;9.99;58.61;100825.13;6072069;23;20100;-87
2023/03/17 20:28:26;;;;;;;22.27;11.63;;;;;;;10.07;58.64;100824.38;6070787;23;20011;-88
2023/03/17 20:30:56;;;;;;;25.35;10.45;;;;;;;10.20;57.89;100817.75;6071632;23;20023;-85
2023/03/17 20:33:44;;;;;;;19.20;11.00;;;;;;;10.26;57.97;100821.59;6076568;23;20078;-87
2023/03/17 20:49:36;;;;;;;19.87;11.20;;;;;;;9.30;62.01;100819.56;6225704;22;20599;-87